Time;durP1;ratioP1;P1;durP2;ratioP2;P2;SDS_P1;SDS_P2;PMS_P1;PMS_P2;Temp;Humidity;BMP_temperature;BMP_pressure;BME280_temperature;BME280_humidity;BME280_pressure;Samples;Min_cycle;Max_cycle;Signal;HPM_P1;HPM_P2
2022/08/07 00:00:46;;;;;;;3.00;2.40;;;13.20;99.90;;;;;;5032946;28;20230;-66
2022/08/07 00:03:14;;;;;;;2.90;2.10;;;13.20;99.90;;;;;;5032441;28;20601;-67
2022/08/07 00:05:41;;;;;;;4.27;2.30;;;13.10;99.90;;;;;;5032245;28;20725;-67
2022/08/07 00:08:08;;;;;;;3.60;2.20;;;13.10;99.90;;;;;;5023797;28;20211;-68
2022/08/07 00:10:35;;;;;;;3.17;2.57;;;13.10;99.90;;;;;;5030348;28;20219;-65
2022/08/07 00:13:05;;;;;;;5.60;2.40;;;13.10;99.90;;;;;;5032811;28;20230;-66
2022/08/07 00:15:33;;;;;;;7.37;2.40;;;13.10;99.90;;;;;;5032570;28;20219;-65
2022/08/07 00:17:59;;;;;;;3.47;2.70;;;13.00;99.90;;;;;;5032926;28;20210;-65
2022/08/07 00:20:27;;;;;;;3.40;2.30;;;13.00;99.90;;;;;;5032650;28;20646;-65
2022/08/07 00:22:54;;;;;;;5.50;2.70;;;13.00;99.90;;;;;;5032993;28;20631;-65
2022/08/07 00:25:23;;;;;;;4.73;2.50;;;13.00;99.90;;;;;;5033058;28;20721;-65
2022/08/07 00:27:50;;;;;;;3.60;2.50;;;12.90;99.90;;;;;;5032609;28;20246;-66
2022/08/07 00:30:16;;;;;;;5.33;2.53;;;12.90;1.00;;;;;;5032654;28;20341;-65
2022/08/07 00:32:43;;;;;;;3.07;2.40;;;12.90;1.00;;;;;;5032828;28;20288;-65
2022/08/07 00:35:10;;;;;;;4.27;2.70;;;12.90;1.00;;;;;;5032989;28;20202;-65
2022/08/07 00:37:38;;;;;;;4.63;2.57;;;12.90;1.00;;;;;;5032098;28;20212;-65
2022/08/07 00:40:05;;;;;;;5.07;2.60;;;12.80;1.00;;;;;;5032454;28;20264;-66
2022/08/07 00:42:32;;;;;;;3.00;2.23;;;12.80;1.00;;;;;;5034235;28;20278;-66
2022/08/07 00:44:59;;;;;;;3.30;2.50;;;12.80;1.00;;;;;;5034063;28;20280;-65
2022/08/07 00:47:26;;;;;;;2.90;2.27;;;12.80;1.00;;;;;;5032086;28;20214;-65
2022/08/07 00:49:53;;;;;;;3.47;2.73;;;12.80;1.00;;;;;;5032291;28;20634;-65
2022/08/07 00:52:19;;;;;;;4.73;2.60;;;12.70;1.00;;;;;;5031812;28;20740;-65
2022/08/07 00:54:48;;;;;;;6.70;3.33;;;12.70;1.00;;;;;;5032508;28;20202;-65
2022/08/07 00:57:16;;;;;;;4.23;2.90;;;12.70;1.00;;;;;;5031903;28;20214;-65
2022/08/07 00:59:43;;;;;;;5.07;3.20;;;12.70;1.00;;;;;;5032187;28;20277;-65
2022/08/07 01:02:11;;;;;;;5.27;2.77;;;12.60;1.00;;;;;;5032317;28;20226;-65
2022/08/07 01:04:38;;;;;;;4.97;3.17;;;12.60;1.00;;;;;;5032335;28;20345;-65
2022/08/07 01:07:05;;;;;;;6.60;2.77;;;12.60;1.00;;;;;;5031941;28;20210;-65
2022/08/07 01:09:32;;;;;;;3.43;2.80;;;12.60;1.00;;;;;;5032023;28;20297;-65
2022/08/07 01:12:01;;;;;;;4.50;2.73;;;12.60;1.00;;;;;;5031634;28;20300;-66
2022/08/07 01:14:27;;;;;;;3.00;2.53;;;12.60;1.00;;;;;;5032010;28;20212;-65
2022/08/07 01:16:54;;;;;;;4.20;2.70;;;12.50;1.00;;;;;;5031800;28;20213;-66
2022/08/07 01:19:23;;;;;;;3.60;2.90;;;12.50;1.00;;;;;;5031986;28;20218;-66
2022/08/07 01:21:52;;;;;;;3.63;2.60;;;12.40;1.00;;;;;;5031880;28;20318;-65
2022/08/07 01:24:19;;;;;;;3.57;3.07;;;12.40;1.00;;;;;;5031786;28;20673;-65
2022/08/07 01:26:46;;;;;;;3.10;2.40;;;12.40;1.00;;;;;;5031848;28;20211;-66
2022/08/07 01:29:14;;;;;;;5.47;2.50;;;12.30;1.00;;;;;;5031855;28;20261;-65
2022/08/07 01:31:41;;;;;;;5.17;2.70;;;12.30;1.00;;;;;;5031936;28;20234;-65
2022/08/07 01:34:07;;;;;;;5.80;2.87;;;12.30;1.00;;;;;;5032319;28;20269;-66
2022/08/07 01:36:35;;;;;;;4.50;2.90;;;12.30;1.00;;;;;;5031569;28;20214;-65
2022/08/07 01:39:04;;;;;;;3.00;2.63;;;12.20;1.00;;;;;;5031616;28;20634;-65
2022/08/07 01:41:31;;;;;;;6.67;3.57;;;12.20;1.00;;;;;;5031859;28;20230;-65
2022/08/07 01:43:58;;;;;;;3.93;2.93;;;12.20;1.00;;;;;;5031962;28;20233;-65
2022/08/07 01:46:26;;;;;;;3.30;2.63;;;12.20;1.00;;;;;;5031494;28;20395;-65
2022/08/07 01:48:52;;;;;;;4.40;2.97;;;12.10;1.00;;;;;;5031869;28;20214;-65
2022/08/07 01:51:21;;;;;;;4.73;3.23;;;12.10;1.00;;;;;;5034626;28;20256;-65
2022/08/07 01:53:51;;;;;;;4.87;3.90;;;12.10;1.00;;;;;;5035865;28;20229;-65
2022/08/07 01:56:25;;;;;;;5.43;3.37;;;12.10;1.00;;;;;;5035489;28;20628;-65
2022/08/07 01:58:57;;;;;;;4.37;3.20;;;12.10;1.00;;;;;;5035470;28;20206;-65
2022/08/07 02:01:31;;;;;;;7.27;3.57;;;12.00;1.00;;;;;;5035682;28;20236;-65
2022/08/07 02:04:02;;;;;;;5.93;3.30;;;12.00;1.00;;;;;;5035670;28;20206;-65
2022/08/07 02:06:32;;;;;;;6.37;3.03;;;12.00;1.00;;;;;;5035326;28;20206;-66
2022/08/07 02:09:03;;;;;;;3.63;2.93;;;12.00;1.00;;;;;;5035456;28;20692;-65
2022/08/07 02:11:34;;;;;;;10.67;3.50;;;12.00;1.00;;;;;;5035561;28;20238;-65
2022/08/07 02:14:03;;;;;;;5.77;4.07;;;11.90;1.00;;;;;;5035269;28;20276;-65
2022/08/07 02:16:30;;;;;;;9.43;4.73;;;11.90;1.00;;;;;;5034962;28;20646;-65
2022/08/07 02:18:57;;;;;;;7.43;4.67;;;11.90;1.00;;;;;;5035319;28;20694;-65
2022/08/07 02:21:25;;;;;;;6.17;4.00;;;11.90;1.00;;;;;;5035029;28;20709;-65
2022/08/07 02:23:53;;;;;;;12.27;3.30;;;11.80;1.00;;;;;;5035313;28;20264;-65
2022/08/07 02:26:21;;;;;;;7.03;3.70;;;11.90;1.00;;;;;;5035028;28;20202;-65
2022/08/07 02:28:51;;;;;;;7.83;3.97;;;11.90;1.00;;;;;;5035036;28;20210;-65
2022/08/07 02:31:19;;;;;;;4.23;3.30;;;11.80;1.00;;;;;;5035080;28;20230;-65
2022/08/07 02:33:47;;;;;;;6.33;2.97;;;11.80;1.00;;;;;;5034859;28;20226;-65
2022/08/07 02:36:16;;;;;;;4.07;2.80;;;11.80;1.00;;;;;;5034277;28;20276;-66
2022/08/07 02:38:44;;;;;;;8.27;2.83;;;11.80;1.00;;;;;;5035199;28;20191;-65
2022/08/07 02:41:12;;;;;;;5.63;3.30;;;11.70;1.00;;;;;;5034805;28;20260;-65
2022/08/07 02:43:42;;;;;;;7.87;2.73;;;11.70;1.00;;;;;;5034758;28;20203;-65
2022/08/07 02:46:12;;;;;;;5.37;3.37;;;11.70;1.00;;;;;;5034681;28;20206;-65
2022/08/07 02:48:39;;;;;;;7.00;3.50;;;11.60;1.00;;;;;;5034702;28;20232;-65
2022/08/07 02:51:10;;;;;;;5.50;3.60;;;11.60;1.00;;;;;;5034576;28;20230;-65
2022/08/07 02:53:39;;;;;;;10.87;4.27;;;11.50;1.00;;;;;;5034396;28;20317;-65
2022/08/07 02:56:08;;;;;;;7.40;4.00;;;11.50;1.00;;;;;;5034136;28;20210;-65
2022/08/07 02:58:37;;;;;;;7.03;4.20;;;11.50;1.00;;;;;;5034645;28;20209;-65
2022/08/07 03:01:04;;;;;;;4.30;3.73;;;11.50;1.00;;;;;;5034099;28;20740;-65
2022/08/07 03:03:34;;;;;;;6.80;3.77;;;11.50;1.00;;;;;;5034010;28;20734;-65
2022/08/07 03:06:01;;;;;;;8.03;3.97;;;11.50;1.00;;;;;;5033990;28;20233;-65
2022/08/07 03:08:29;;;;;;;5.93;4.00;;;11.50;1.00;;;;;;5034190;28;20684;-65
2022/08/07 03:10:57;;;;;;;8.40;3.60;;;11.50;1.00;;;;;;5033946;28;20739;-65
2022/08/07 03:13:24;;;;;;;5.33;3.80;;;11.50;1.00;;;;;;5034019;28;20280;-65
2022/08/07 03:15:52;;;;;;;6.67;4.00;;;11.50;1.00;;;;;;5034125;28;20206;-65
2022/08/07 03:18:19;;;;;;;5.40;3.60;;;11.50;1.00;;;;;;5034149;28;20260;-65
2022/08/07 03:20:48;;;;;;;4.90;4.17;;;11.50;1.00;;;;;;5034080;28;20233;-65
2022/08/07 03:23:16;;;;;;;4.47;4.07;;;11.50;1.00;;;;;;5033769;28;20202;-65
2022/08/07 03:25:45;;;;;;;6.67;3.90;;;11.40;1.00;;;;;;5033968;28;20210;-65
2022/08/07 03:28:16;;;;;;;5.77;3.50;;;11.40;1.00;;;;;;5033929;28;20202;-66
2022/08/07 03:30:43;;;;;;;5.27;3.47;;;11.40;1.00;;;;;;5033802;28;20736;-65
2022/08/07 03:33:11;;;;;;;4.20;3.30;;;11.40;1.00;;;;;;5033735;28;20704;-65
2022/08/07 03:35:40;;;;;;;4.00;2.83;;;11.40;1.00;;;;;;5033622;28;20649;-66
2022/08/07 03:38:09;;;;;;;4.23;2.87;;;11.50;1.00;;;;;;5033595;28;20264;-65
2022/08/07 03:40:36;;;;;;;3.23;2.80;;;11.50;1.00;;;;;;5034011;28;20276;-65
2022/08/07 03:43:03;;;;;;;4.27;2.63;;;11.50;1.00;;;;;;5033639;28;20252;-65
2022/08/07 03:45:31;;;;;;;3.30;2.43;;;11.50;1.00;;;;;;5033441;28;20348;-65
2022/08/07 03:47:59;;;;;;;2.93;2.60;;;11.50;1.00;;;;;;5033045;28;20252;-65
2022/08/07 03:50:26;;;;;;;3.47;2.40;;;11.50;1.00;;;;;;5033605;28;20230;-65
2022/08/07 03:52:55;;;;;;;3.00;2.40;;;11.50;1.00;;;;;;5033322;28;20226;-65
2022/08/07 03:55:24;;;;;;;7.30;2.53;;;11.50;1.00;;;;;;5033666;28;20301;-66
2022/08/07 03:57:51;;;;;;;5.47;2.20;;;11.50;1.00;;;;;;5033078;28;20206;-65
2022/08/07 04:00:19;;;;;;;3.20;2.40;;;11.40;1.00;;;;;;5033309;28;20625;-65
2022/08/07 04:02:46;;;;;;;4.37;2.40;;;11.40;1.00;;;;;;5033212;28;20642;-65
2022/08/07 04:05:13;;;;;;;4.70;2.50;;;11.30;1.00;;;;;;5033012;28;20233;-65
2022/08/07 04:07:45;;;;;;;4.93;2.40;;;11.30;1.00;;;;;;5032736;28;20677;-65
2022/08/07 04:10:12;;;;;;;5.77;2.33;;;11.30;1.00;;;;;;5033172;28;20736;-65
2022/08/07 04:12:41;;;;;;;4.70;2.67;;;11.30;1.00;;;;;;5032785;28;20324;-65
2022/08/07 04:15:10;;;;;;;3.87;2.50;;;11.30;1.00;;;;;;5032366;28;20316;-66
2022/08/07 04:17:37;;;;;;;3.00;2.60;;;11.40;1.00;;;;;;5033503;28;20213;-66
2022/08/07 04:20:05;;;;;;;3.70;2.47;;;11.40;1.00;;;;;;5033004;28;20218;-65
2022/08/07 04:22:32;;;;;;;4.53;2.70;;;11.40;1.00;;;;;;5032786;28;20234;-65
2022/08/07 04:25:00;;;;;;;3.93;2.37;;;11.40;1.00;;;;;;5032863;28;20628;-65
2022/08/07 04:27:26;;;;;;;2.73;2.47;;;11.50;1.00;;;;;;5032217;28;20589;-65
2022/08/07 04:29:54;;;;;;;2.83;2.20;;;11.50;1.00;;;;;;5032529;28;20265;-65
2022/08/07 04:32:22;;;;;;;3.10;2.60;;;11.50;1.00;;;;;;5032882;28;20231;-65
2022/08/07 04:34:50;;;;;;;2.87;2.57;;;11.50;1.00;;;;;;5032343;28;20222;-65
2022/08/07 04:37:17;;;;;;;2.43;2.23;;;11.50;1.00;;;;;;5032227;28;20591;-65
2022/08/07 04:39:44;;;;;;;3.20;2.90;;;11.50;1.00;;;;;;5032628;28;20621;-65
2022/08/07 04:42:10;;;;;;;3.53;2.30;;;11.50;1.00;;;;;;5032131;28;20645;-65
2022/08/07 04:44:37;;;;;;;3.00;2.60;;;11.50;1.00;;;;;;5032703;28;20229;-65
2022/08/07 04:47:11;;;;;;;2.70;2.50;;;11.60;1.00;;;;;;5032187;28;20210;-65
2022/08/07 04:49:45;;;;;;;4.50;2.73;;;11.60;1.00;;;;;;5032656;28;20210;-65
2022/08/07 04:52:21;;;;;;;4.93;2.43;;;11.60;1.00;;;;;;5032309;28;20225;-65
2022/08/07 04:55:05;;;;;;;3.20;2.27;;;11.60;1.00;;;;;;5032173;28;20222;-65
2022/08/07 04:57:42;;;;;;;4.50;2.63;;;11.60;1.00;;;;;;5032023;28;20214;-65
2022/08/07 05:00:13;;;;;;;4.13;2.63;;;11.70;1.00;;;;;;5032366;28;20264;-66
2022/08/07 05:02:49;;;;;;;2.80;2.50;;;11.70;1.00;;;;;;5032111;28;20288;-66
2022/08/07 05:05:22;;;;;;;3.43;2.47;;;11.70;1.00;;;;;;5031827;28;20205;-66
2022/08/07 05:07:56;;;;;;;6.67;2.87;;;11.80;1.00;;;;;;5031909;28;20212;-66
2022/08/07 05:10:28;;;;;;;3.87;2.33;;;11.80;1.00;;;;;;5032242;28;20214;-66
2022/08/07 05:12:59;;;;;;;3.13;2.60;;;11.80;1.00;;;;;;5031933;28;20241;-66
2022/08/07 05:15:30;;;;;;;3.03;2.77;;;11.80;1.00;;;;;;5032030;28;20207;-66
2022/08/07 05:18:07;;;;;;;2.90;2.60;;;11.90;1.00;;;;;;5031506;28;20214;-65
2022/08/07 05:20:39;;;;;;;4.40;2.83;;;11.90;1.00;;;;;;5032026;28;20292;-65
2022/08/07 05:23:13;;;;;;;2.50;2.30;;;12.00;1.00;;;;;;5031811;28;20249;-66
2022/08/07 05:25:42;;;;;;;4.43;2.70;;;12.00;1.00;;;;;;5031468;28;20349;-66
2022/08/07 05:28:10;;;;;;;5.07;2.43;;;12.10;1.00;;;;;;5031331;28;20242;-66
2022/08/07 05:30:37;;;;;;;2.63;2.43;;;12.20;1.00;;;;;;5031931;28;20308;-66
2022/08/07 05:33:07;;;;;;;3.23;2.80;;;12.20;1.00;;;;;;5031817;28;20211;-66
2022/08/07 05:35:37;;;;;;;4.43;2.80;;;12.20;1.00;;;;;;5031810;28;20264;-65
2022/08/07 05:38:06;;;;;;;5.03;2.40;;;12.30;1.00;;;;;;5031489;28;20212;-66
2022/08/07 05:40:33;;;;;;;3.33;2.53;;;12.40;1.00;;;;;;5031560;28;20212;-65
2022/08/07 05:43:01;;;;;;;2.60;2.20;;;12.40;1.00;;;;;;5031722;28;20242;-65
2022/08/07 05:45:28;;;;;;;4.40;2.13;;;12.50;1.00;;;;;;5031809;28;20218;-65
2022/08/07 05:47:55;;;;;;;2.93;1.97;;;12.60;1.00;;;;;;5031455;28;20207;-65
2022/08/07 05:50:23;;;;;;;2.17;1.90;;;12.70;1.00;;;;;;5031608;28;20211;-66
2022/08/07 05:52:50;;;;;;;2.47;2.00;;;12.80;1.00;;;;;;5031558;28;20683;-66
2022/08/07 05:55:17;;;;;;;2.23;1.90;;;12.90;1.00;;;;;;5031502;28;20627;-66
2022/08/07 05:57:46;;;;;;;3.97;1.80;;;13.00;1.00;;;;;;5031293;28;20207;-66
2022/08/07 06:00:13;;;;;;;2.43;1.80;;;13.10;1.00;;;;;;5031607;28;20212;-66
2022/08/07 06:02:41;;;;;;;2.50;1.90;;;13.10;1.00;;;;;;5031700;28;20233;-66
2022/08/07 06:05:10;;;;;;;2.30;1.90;;;13.20;1.00;;;;;;5031486;28;20670;-66
2022/08/07 06:07:39;;;;;;;3.43;1.90;;;13.30;1.00;;;;;;5030717;28;20621;-66
2022/08/07 06:10:08;;;;;;;3.40;1.97;;;13.30;1.00;;;;;;5031696;28;20218;-65
2022/08/07 06:12:35;;;;;;;4.03;1.90;;;13.50;99.90;;;;;;5031194;28;20718;-66
2022/08/07 06:15:02;;;;;;;2.57;1.90;;;13.60;99.90;;;;;;5031611;28;20283;-66
2022/08/07 06:17:30;;;;;;;2.00;1.70;;;13.70;99.90;;;;;;5030786;28;20205;-66
2022/08/07 06:19:58;;;;;;;2.33;1.80;;;13.80;99.90;;;;;;5031373;28;20275;-66
2022/08/07 06:22:26;;;;;;;3.13;1.90;;;14.00;99.90;;;;;;5031143;28;20279;-66
2022/08/07 06:24:57;;;;;;;5.00;2.10;;;14.10;99.90;;;;;;5031512;28;20677;-66
2022/08/07 06:27:24;;;;;;;2.60;1.70;;;14.10;99.90;;;;;;5030972;28;20735;-66
2022/08/07 06:29:51;;;;;;;4.80;1.83;;;14.20;91.00;;;;;;5031460;28;20206;-66
2022/08/07 06:32:18;;;;;;;2.90;1.87;;;14.30;1.00;;;;;;5031198;28;20236;-66
2022/08/07 06:34:45;;;;;;;2.80;1.87;;;14.40;99.90;;;;;;5031122;28;20233;-66
2022/08/07 06:37:11;;;;;;;2.47;1.50;;;14.60;9.60;;;;;;5032237;28;20218;-66
2022/08/07 06:39:38;;;;;;;2.37;1.63;;;14.70;1.00;;;;;;5034855;28;20267;-66
2022/08/07 06:42:11;;;;;;;2.43;1.60;;;14.80;99.90;;;;;;5034859;28;20230;-66
2022/08/07 06:44:39;;;;;;;3.07;1.50;;;14.90;1.00;;;;;;5034724;28;20260;-66
2022/08/07 06:47:06;;;;;;;2.10;1.20;;;15.00;1.00;;;;;;5034333;28;20210;-66
2022/08/07 06:49:33;;;;;;;1.67;1.30;;;15.10;99.90;;;;;;5034459;28;20264;-66
2022/08/07 06:52:02;;;;;;;1.50;1.40;;;15.20;1.00;;;;;;5034669;28;20226;-66
2022/08/07 06:54:31;;;;;;;2.30;1.60;;;15.30;99.90;;;;;;5034445;28;20736;-66
2022/08/07 06:56:59;;;;;;;1.93;1.33;;;15.50;1.00;;;;;;5033862;28;20276;-66
2022/08/07 06:59:32;;;;;;;2.23;1.23;;;15.60;1.00;;;;;;5034245;28;20206;-66
2022/08/07 07:01:59;;;;;;;3.23;1.93;;;15.70;99.90;;;;;;5034137;28;20280;-66
2022/08/07 07:04:26;;;;;;;4.13;2.00;;;15.80;99.90;;;;;;5034311;28;20250;-66
2022/08/07 07:06:53;;;;;;;1.27;1.00;;;16.00;99.90;;;;;;5034022;28;20218;-66
2022/08/07 07:09:23;;;;;;;1.73;1.23;;;16.00;99.90;;;;;;5034194;28;20228;-66
2022/08/07 07:12:03;;;;;;;1.30;1.20;;;16.20;99.90;;;;;;5034061;28;20285;-66
2022/08/07 07:14:45;;;;;;;5.63;1.10;;;16.30;99.90;;;;;;5034063;28;20747;-66
2022/08/07 07:17:18;;;;;;;2.80;1.50;;;16.40;99.90;;;;;;5034087;28;20206;-66
2022/08/07 07:19:50;;;;;;;2.03;1.17;;;16.60;99.90;;;;;;5034346;28;20214;-67
2022/08/07 07:22:18;;;;;;;1.23;1.10;;;16.70;99.90;;;;;;5034120;28;20230;-67
2022/08/07 07:24:47;;;;;;;2.33;1.20;;;16.90;99.90;;;;;;5034000;28;20236;-66
2022/08/07 07:27:18;;;;;;;1.23;0.90;;;17.00;99.90;;;;;;5033584;28;20605;-66
2022/08/07 07:29:51;;;;;;;1.77;1.20;;;17.20;99.90;;;;;;5034090;28;20305;-67
2022/08/07 07:32:21;;;;;;;1.83;1.27;;;17.40;99.90;;;;;;5024617;28;20238;-66
2022/08/07 07:34:52;;;;;;;2.30;1.00;;;17.60;99.90;;;;;;5029191;28;20230;-70
2022/08/07 07:37:20;;;;;;;1.50;0.90;;;17.70;99.90;;;;;;5032624;28;20630;-68
2022/08/07 07:39:49;;;;;;;2.00;0.90;;;17.80;99.90;;;;;;5033851;28;20218;-75
2022/08/07 07:42:19;;;;;;;2.30;1.10;;;18.00;99.90;;;;;;5029283;28;20766;-67
2022/08/07 07:44:48;;;;;;;3.10;1.00;;;18.20;99.90;;;;;;5032933;28;20673;-67
2022/08/07 07:47:16;;;;;;;5.97;1.63;;;18.50;99.90;;;;;;5032626;28;20668;-73
2022/08/07 07:49:45;;;;;;;4.77;1.13;;;18.70;99.90;;;;;;5033710;28;20210;-71
2022/08/07 07:52:14;;;;;;;1.93;1.23;;;18.90;99.90;;;;;;5034304;28;20704;-71
2022/08/07 07:54:43;;;;;;;6.37;2.87;;;19.00;99.90;;;;;;5028401;28;20472;-71
2022/08/07 07:57:11;;;;;;;3.13;1.50;;;19.10;99.90;;;;;;5017958;28;20622;-68
2022/08/07 07:59:40;;;;;;;2.60;1.17;;;19.20;99.90;;;;;;5032073;28;20210;-68
2022/08/07 08:02:11;;;;;;;1.93;1.10;;;19.50;99.90;;;;;;5032407;28;20484;-68
2022/08/07 08:04:39;;;;;;;2.20;1.50;;;19.70;99.90;;;;;;5032204;28;20202;-68
2022/08/07 08:07:07;;;;;;;2.07;0.73;;;19.80;99.90;;;;;;5032296;28;20210;-68
2022/08/07 08:09:36;;;;;;;5.93;1.60;;;19.90;99.90;;;;;;5032766;28;20337;-70
2022/08/07 08:12:03;;;;;;;2.10;1.23;;;20.10;99.90;;;;;;5032759;28;20230;-67
2022/08/07 08:14:30;;;;;;;2.57;1.60;;;20.30;99.90;;;;;;5032532;28;20837;-67
2022/08/07 08:17:00;;;;;;;3.70;1.20;;;20.40;99.90;;;;;;5030333;28;20665;-68
2022/08/07 08:19:30;;;;;;;3.03;1.00;;;20.30;99.90;;;;;;5032399;28;20214;-67
2022/08/07 08:27:35;;;;;;;2.33;0.83;;;20.40;99.90;;;;;;5031619;28;20616;-68
2022/08/07 08:30:06;;;;;;;2.27;0.67;;;20.60;99.90;;;;;;5032513;28;20214;-68
2022/08/07 08:32:38;;;;;;;1.43;0.70;;;20.60;99.90;;;;;;5032443;28;20579;-67
2022/08/07 08:35:12;;;;;;;1.87;0.70;;;20.70;99.90;;;;;;5032264;28;20280;-69
2022/08/07 08:37:39;;;;;;;1.17;0.60;;;20.80;99.90;;;;;;5031296;28;20210;-68
2022/08/07 08:40:13;;;;;;;1.37;0.50;;;21.00;99.90;;;;;;5032566;28;20210;-69
2022/08/07 08:42:44;;;;;;;1.47;0.60;;;21.10;99.90;;;;;;5031468;28;20904;-67
2022/08/07 08:45:18;;;;;;;2.30;0.90;;;20.90;99.90;;;;;;5032209;28;20210;-68
2022/08/07 08:47:55;;;;;;;2.03;0.43;;;20.90;99.90;;;;;;5031331;28;20206;-68
2022/08/07 08:50:28;;;;;;;0.70;0.50;;;21.10;99.90;;;;;;5032093;28;20206;-68
2022/08/07 08:53:04;;;;;;;2.33;0.70;;;21.40;99.90;;;;;;5031078;28;20252;-71
2022/08/07 08:55:36;;;;;;;1.13;0.67;;;21.40;99.90;;;;;;5032128;28;20214;-68
2022/08/07 08:58:08;;;;;;;2.83;0.47;;;21.50;99.90;;;;;;5031087;28;20268;-67
2022/08/07 09:00:41;;;;;;;1.47;0.50;;;21.50;99.90;;;;;;5031022;28;20221;-67
2022/08/07 09:03:18;;;;;;;6.90;2.10;;;21.60;99.90;;;;;;5032129;28;20264;-67
2022/08/07 09:05:54;;;;;;;9.83;6.23;;;21.70;99.90;;;;;;5031825;28;20202;-69
2022/08/07 09:08:45;;;;;;;0.60;0.50;;;21.70;99.90;;;;;;5031859;28;20190;-68
2022/08/07 09:11:17;;;;;;;1.60;0.60;;;21.80;99.90;;;;;;5031634;28;20300;-69
2022/08/07 09:13:57;;;;;;;0.63;0.40;;;21.80;99.90;;;;;;5031841;28;20292;-68
2022/08/07 09:16:34;;;;;;;1.10;0.67;;;21.90;99.90;;;;;;5031731;28;20186;-69
2022/08/07 09:19:11;;;;;;;2.40;0.43;;;21.80;99.90;;;;;;5031207;28;20218;-68
2022/08/07 09:21:52;;;;;;;1.23;0.60;;;21.90;99.90;;;;;;5031587;28;20240;-68
2022/08/07 09:24:30;;;;;;;2.30;0.50;;;21.70;99.90;;;;;;5031980;28;20244;-70
2022/08/07 09:27:08;;;;;;;0.47;0.30;;;21.80;99.90;;;;;;5031334;28;20225;-69
2022/08/07 09:29:46;;;;;;;2.53;0.80;;;22.00;99.90;;;;;;5031806;28;20194;-69
2022/08/07 09:32:24;;;;;;;0.43;0.40;;;22.00;99.90;;;;;;5031626;28;20225;-69
2022/08/07 09:35:04;;;;;;;2.30;0.50;;;21.80;99.90;;;;;;5031861;28;20206;-69
2022/08/07 09:37:40;;;;;;;0.93;0.53;;;21.80;99.90;;;;;;5031273;28;20545;-70
2022/08/07 09:40:16;;;;;;;0.80;0.50;;;22.00;99.90;;;;;;5031453;28;20256;-70
2022/08/07 09:42:52;;;;;;;2.87;0.50;;;22.20;99.90;;;;;;5031380;28;20252;-70
2022/08/07 09:45:34;;;;;;;1.27;0.50;;;22.30;99.90;;;;;;5031003;28;20593;-69
2022/08/07 09:48:12;;;;;;;3.17;0.33;;;22.30;99.90;;;;;;5031185;28;20222;-68
2022/08/07 09:50:50;;;;;;;0.50;0.40;;;22.10;99.90;;;;;;5030858;28;20226;-67
2022/08/07 09:53:22;;;;;;;2.70;1.60;;;22.10;99.90;;;;;;5031647;28;20268;-63
2022/08/07 09:56:08;;;;;;;4.03;2.03;;;22.00;99.90;;;;;;5031219;28;20261;-66
2022/08/07 09:59:03;;;;;;;0.73;0.70;;;21.90;99.90;;;;;;5031131;28;20654;-69
2022/08/07 10:02:00;;;;;;;0.93;0.70;;;21.70;99.90;;;;;;5031008;28;20786;-65
2022/08/07 10:04:58;;;;;;;1.07;0.40;;;21.90;99.90;;;;;;5030524;28;20206;-67
2022/08/07 10:07:36;;;;;;;1.03;0.50;;;22.00;99.90;;;;;;5030378;28;20252;-67
2022/08/07 10:10:17;;;;;;;2.07;0.60;;;22.00;99.90;;;;;;5031447;28;20214;-68
2022/08/07 10:13:10;;;;;;;0.50;0.40;;;22.10;99.90;;;;;;5034843;28;20257;-66
2022/08/07 10:16:01;;;;;;;1.80;0.60;;;22.30;99.90;;;;;;5034451;28;20230;-68
2022/08/07 10:18:52;;;;;;;1.17;0.50;;;22.40;99.90;;;;;;5034494;28;20737;-68
2022/08/07 10:21:31;;;;;;;0.80;0.40;;;22.50;99.90;;;;;;5034813;28;20234;-70
2022/08/07 10:24:26;;;;;;;3.17;0.60;;;22.50;99.90;;;;;;5034219;28;20206;-67
2022/08/07 10:27:10;;;;;;;0.77;0.50;;;22.60;99.90;;;;;;5021310;28;20256;-72
2022/08/07 10:29:55;;;;;;;0.50;0.50;;;22.70;99.90;;;;;;5035086;28;20210;-73
2022/08/07 10:32:34;;;;;;;1.17;0.57;;;22.50;99.90;;;;;;5034787;28;20317;-65
2022/08/07 10:35:12;;;;;;;0.63;0.47;;;22.60;99.90;;;;;;5034613;28;20320;-68
2022/08/07 10:37:50;;;;;;;0.60;0.40;;;22.60;99.90;;;;;;5035270;28;20236;-68
2022/08/07 10:40:21;;;;;;;1.10;0.50;;;22.40;99.90;;;;;;5038723;28;20270;-66
2022/08/07 10:43:07;;;;;;;1.67;0.50;;;22.60;99.90;;;;;;5054109;28;20684;-68
2022/08/07 10:45:37;;;;;;;1.63;0.60;;;22.80;99.90;;;;;;5054549;28;20213;-68
2022/08/07 10:48:19;;;;;;;3.93;0.60;;;22.70;99.90;;;;;;5055062;28;20213;-68
2022/08/07 10:50:50;;;;;;;1.93;0.60;;;22.80;99.90;;;;;;5053981;28;20225;-65
2022/08/07 10:53:25;;;;;;;1.80;0.40;;;22.90;99.90;;;;;;5054046;28;20675;-65
2022/08/07 10:56:00;;;;;;;0.93;0.57;;;22.70;99.90;;;;;;5053938;28;20271;-65
2022/08/07 10:58:46;;;;;;;1.63;0.60;;;22.70;99.90;;;;;;5053897;28;20213;-65
2022/08/07 11:01:29;;;;;;;1.07;0.53;;;22.70;99.90;;;;;;5053696;28;20320;-65
2022/08/07 11:04:04;;;;;;;2.60;1.70;;;22.70;99.90;;;;;;5054081;28;20271;-67
2022/08/07 11:06:40;;;;;;;1.23;0.50;;;22.50;99.90;;;;;;5053468;28;20212;-66
2022/08/07 11:09:11;;;;;;;0.87;0.50;;;22.60;99.90;;;;;;5048523;28;20206;-67
2022/08/07 11:11:45;;;;;;;0.60;0.50;;;22.60;99.90;;;;;;5032701;28;20313;-64
2022/08/07 11:14:20;;;;;;;0.90;0.60;;;22.70;99.90;;;;;;5033650;28;20214;-64
2022/08/07 11:16:52;;;;;;;1.13;0.53;;;22.70;99.90;;;;;;5033020;28;20317;-65
2022/08/07 11:19:29;;;;;;;2.40;0.67;;;22.70;99.90;;;;;;5033241;28;20267;-67
2022/08/07 11:22:05;;;;;;;0.70;0.60;;;22.70;99.90;;;;;;5033567;28;20245;-68
2022/08/07 11:24:40;;;;;;;0.80;0.47;;;22.80;99.90;;;;;;5046011;28;20217;-69
2022/08/07 11:27:11;;;;;;;2.40;0.57;;;22.70;99.90;;;;;;5049810;28;20210;-69
2022/08/07 11:29:45;;;;;;;1.73;0.40;;;22.80;99.90;;;;;;5038490;28;20205;-68
2022/08/07 11:32:17;;;;;;;3.17;0.60;;;22.80;99.90;;;;;;5033415;28;20227;-68
2022/08/07 11:34:48;;;;;;;0.67;0.50;;;22.80;99.90;;;;;;5033000;28;20261;-68
2022/08/07 11:37:28;;;;;;;0.93;0.43;;;22.50;99.90;;;;;;5032824;28;20206;-68
2022/08/07 11:40:07;;;;;;;1.07;0.70;;;22.70;99.90;;;;;;5039312;28;20628;-68
2022/08/07 11:42:46;;;;;;;1.70;0.40;;;22.90;99.90;;;;;;5053218;28;20250;-65
2022/08/07 11:45:23;;;;;;;0.67;0.50;;;23.10;99.90;;;;;;5052465;28;20205;-66
2022/08/07 11:48:14;;;;;;;0.57;0.40;;;23.00;99.90;;;;;;5052141;28;20205;-67
2022/08/07 11:50:49;;;;;;;1.13;0.50;;;23.10;99.90;;;;;;5042831;28;20233;-67
2022/08/07 11:53:25;;;;;;;0.50;0.50;;;23.10;99.90;;;;;;5052945;28;20205;-67
2022/08/07 11:56:17;;;;;;;3.87;0.67;;;23.30;99.90;;;;;;5052904;28;20580;-67
2022/08/07 11:58:56;;;;;;;1.00;0.60;;;23.40;99.90;;;;;;5053216;28;20279;-67
2022/08/07 12:01:38;;;;;;;0.93;0.50;;;23.10;99.90;;;;;;5052981;28;20355;-67
2022/08/07 12:04:24;;;;;;;1.37;0.50;;;23.30;99.90;;;;;;5052862;28;20213;-67
2022/08/07 12:06:58;;;;;;;0.93;0.50;;;23.50;99.90;;;;;;5052620;28;20271;-67
2022/08/07 12:09:33;;;;;;;0.37;0.33;;;23.70;99.90;;;;;;5053009;28;20206;-67
2022/08/07 12:12:06;;;;;;;0.93;0.43;;;23.70;99.90;;;;;;5052688;28;20650;-67
2022/08/07 12:14:42;;;;;;;1.70;0.40;;;23.80;99.90;;;;;;5052564;28;20210;-67
2022/08/07 12:17:12;;;;;;;1.37;0.60;;;23.90;99.90;;;;;;5052755;28;20291;-67
2022/08/07 12:19:49;;;;;;;0.63;0.40;;;23.80;99.90;;;;;;5052797;28;20217;-67
2022/08/07 12:22:23;;;;;;;1.63;0.63;;;23.90;99.90;;;;;;5052756;28;20789;-67
2022/08/07 12:27:48;;;;;;;0.90;0.40;;;23.90;99.90;;;;;;5052049;28;20208;-67
2022/08/07 12:30:17;;;;;;;1.40;0.40;;;23.70;99.90;;;;;;5052740;28;20239;-67
2022/08/07 12:32:54;;;;;;;0.40;0.33;;;23.50;99.90;;;;;;5052670;28;20209;-67
2022/08/07 12:35:24;;;;;;;1.23;0.50;;;23.40;99.90;;;;;;5051704;28;20239;-67
2022/08/07 12:37:52;;;;;;;3.77;1.00;;;23.30;99.90;;;;;;5051799;28;20687;-67
2022/08/07 12:40:22;;;;;;;0.50;0.50;;;23.00;99.90;;;;;;5052772;28;20256;-67
2022/08/07 12:42:52;;;;;;;0.73;0.40;;;23.10;99.90;;;;;;5052318;28;20206;-68
2022/08/07 12:45:23;;;;;;;0.40;0.40;;;23.40;99.90;;;;;;5052349;28;20211;-67
2022/08/07 12:47:59;;;;;;;0.50;0.33;;;23.50;99.90;;;;;;5052010;28;20255;-67
2022/08/07 12:50:32;;;;;;;0.60;0.40;;;23.30;99.90;;;;;;5052286;28;20202;-67
2022/08/07 12:53:03;;;;;;;0.77;0.50;;;23.30;99.90;;;;;;5052158;28;20205;-67
2022/08/07 12:55:36;;;;;;;11.40;6.60;;;23.30;99.90;;;;;;5051917;28;20654;-67
2022/08/07 12:58:04;;;;;;;2.13;0.60;;;23.60;99.90;;;;;;5051558;28;20288;-67
2022/08/07 13:00:40;;;;;;;0.90;0.63;;;23.70;99.90;;;;;;5052200;28;20216;-67
2022/08/07 13:03:22;;;;;;;1.27;0.97;;;24.00;99.90;;;;;;5027756;28;20202;-67
2022/08/07 13:06:00;;;;;;;1.13;0.70;;;24.10;99.90;;;;;;5021628;28;20203;-67
2022/08/07 13:08:41;;;;;;;0.97;0.47;;;24.40;99.90;;;;;;5013610;28;20219;-70
2022/08/07 13:11:21;;;;;;;2.03;0.40;;;24.60;99.90;;;;;;5012029;28;20223;-68
2022/08/07 13:13:57;;;;;;;1.47;0.60;;;24.70;99.90;;;;;;5011480;28;20215;-69
2022/08/07 13:16:35;;;;;;;1.20;0.60;;;24.80;99.90;;;;;;5011443;28;20688;-70
2022/08/07 13:19:11;;;;;;;0.50;0.30;;;24.90;99.90;;;;;;5026487;28;20238;-66
2022/08/07 13:21:42;;;;;;;1.47;0.43;;;24.90;99.90;;;;;;5031091;28;20712;-66